sensor_id;sensor_type;location;lat;lon;timestamp;pressure;altitude;pressure_sealevel;temperature;humidity
51530;BME280;37613;51.788;21.582;2023-03-14T00:05:23;98663.02;;;6.89;87.02
51530;BME280;37613;51.788;21.582;2023-03-14T00:10:01;98670.34;;;6.88;86.99
51530;BME280;37613;51.788;21.582;2023-03-14T00:19:46;98661.96;;;6.76;85.98
51530;BME280;37613;51.788;21.582;2023-03-14T00:44:53;98627.35;;;6.58;85.02
51530;BME280;37613;51.788;21.582;2023-03-14T03:26:50;98451.64;;;5.53;82.29
51530;BME280;37613;51.788;21.582;2023-03-14T03:58:21;98427.98;;;5.61;81.53
51530;BME280;37613;51.788;21.582;2023-03-14T04:34:37;98388.65;;;5.67;81.25
51530;BME280;37613;51.788;21.582;2023-03-14T04:49:51;98392.10;;;5.67;81.20
51530;BME280;37613;51.788;21.582;2023-03-14T05:00:05;98391.25;;;5.73;80.83
51530;BME280;37613;51.788;21.582;2023-03-14T05:41:38;98340.67;;;9.04;81.00
51530;BME280;37613;51.788;21.582;2023-03-14T05:51:58;98332.98;;;11.62;79.05
51530;BME280;37613;51.788;21.582;2023-03-14T05:56:35;98354.52;;;12.54;77.83
51530;BME280;37613;51.788;21.582;2023-03-14T06:01:17;98371.64;;;12.64;74.30
51530;BME280;37613;51.788;21.582;2023-03-14T06:15:39;98348.25;;;9.21;73.03
51530;BME280;37613;51.788;21.582;2023-03-14T06:20:39;98344.09;;;8.91;73.40
51530;BME280;37613;51.788;21.582;2023-03-14T06:25:37;98345.41;;;9.66;72.18
51530;BME280;37613;51.788;21.582;2023-03-14T06:30:36;98354.41;;;9.99;71.26
51530;BME280;37613;51.788;21.582;2023-03-14T06:39:55;98337.17;;;10.62;69.73
51530;BME280;37613;51.788;21.582;2023-03-14T06:48:49;98315.99;;;11.70;68.64
51530;BME280;37613;51.788;21.582;2023-03-14T06:53:11;98306.52;;;11.80;68.33
51530;BME280;37613;51.788;21.582;2023-03-14T06:57:41;98296.34;;;11.64;67.75
51530;BME280;37613;51.788;21.582;2023-03-14T07:02:16;98294.96;;;11.49;66.33
51530;BME280;37613;51.788;21.582;2023-03-14T07:06:55;98299.73;;;11.39;65.80
51530;BME280;37613;51.788;21.582;2023-03-14T07:11:25;98299.45;;;11.30;65.96
51530;BME280;37613;51.788;21.582;2023-03-14T07:15:56;98292.30;;;11.31;66.63
51530;BME280;37613;51.788;21.582;2023-03-14T07:20:21;98293.98;;;11.31;64.63
51530;BME280;37613;51.788;21.582;2023-03-14T07:25:09;98285.58;;;11.24;64.51
51530;BME280;37613;51.788;21.582;2023-03-14T07:29:46;98287.15;;;11.27;65.44
51530;BME280;37613;51.788;21.582;2023-03-14T07:38:44;98282.73;;;11.27;62.23
51530;BME280;37613;51.788;21.582;2023-03-14T07:43:27;98284.38;;;11.27;62.49
51530;BME280;37613;51.788;21.582;2023-03-14T07:48:02;98284.02;;;11.38;63.69
51530;BME280;37613;51.788;21.582;2023-03-14T07:58:01;98285.21;;;11.70;63.05
51530;BME280;37613;51.788;21.582;2023-03-14T08:02:50;98271.63;;;11.81;63.44
51530;BME280;37613;51.788;21.582;2023-03-14T08:07:12;98263.70;;;11.91;62.43
51530;BME280;37613;51.788;21.582;2023-03-14T08:11:51;98256.80;;;12.00;61.96
51530;BME280;37613;51.788;21.582;2023-03-14T08:16:19;98247.96;;;12.16;62.89
51530;BME280;37613;51.788;21.582;2023-03-14T08:20:38;98235.63;;;12.41;62.07
51530;BME280;37613;51.788;21.582;2023-03-14T08:25:02;98228.90;;;12.63;63.21
51530;BME280;37613;51.788;21.582;2023-03-14T08:29:39;98226.49;;;12.89;63.74
51530;BME280;37613;51.788;21.582;2023-03-14T08:34:03;98232.02;;;13.11;62.88
51530;BME280;37613;51.788;21.582;2023-03-14T08:38:18;98238.98;;;13.35;62.08
51530;BME280;37613;51.788;21.582;2023-03-14T08:42:29;98237.81;;;13.53;61.91
51530;BME280;37613;51.788;21.582;2023-03-14T08:46:40;98232.60;;;13.69;61.18
51530;BME280;37613;51.788;21.582;2023-03-14T08:51:07;98232.89;;;13.85;61.20
51530;BME280;37613;51.788;21.582;2023-03-14T08:55:21;98225.58;;;13.95;60.80
51530;BME280;37613;51.788;21.582;2023-03-14T08:59:34;98226.11;;;14.13;61.07
51530;BME280;37613;51.788;21.582;2023-03-14T09:03:45;98235.70;;;14.32;59.94
51530;BME280;37613;51.788;21.582;2023-03-14T09:07:56;98226.99;;;14.45;59.22
51530;BME280;37613;51.788;21.582;2023-03-14T09:12:09;98216.42;;;14.69;58.81
51530;BME280;37613;51.788;21.582;2023-03-14T09:16:19;98214.06;;;15.01;59.12
51530;BME280;37613;51.788;21.582;2023-03-14T09:20:30;98211.67;;;15.30;57.68
51530;BME280;37613;51.788;21.582;2023-03-14T09:24:39;98197.36;;;15.49;57.63
51530;BME280;37613;51.788;21.582;2023-03-14T09:28:47;98188.74;;;15.53;56.18
51530;BME280;37613;51.788;21.582;2023-03-14T09:32:52;98184.25;;;15.56;57.45
51530;BME280;37613;51.788;21.582;2023-03-14T09:37:03;98181.15;;;15.65;56.21
51530;BME280;37613;51.788;21.582;2023-03-14T09:45:39;98171.36;;;15.79;56.24
51530;BME280;37613;51.788;21.582;2023-03-14T09:49:49;98165.19;;;15.85;55.87
51530;BME280;37613;51.788;21.582;2023-03-14T09:53:58;98166.35;;;15.87;55.59
51530;BME280;37613;51.788;21.582;2023-03-14T09:58:10;98166.65;;;15.85;55.50
51530;BME280;37613;51.788;21.582;2023-03-14T10:02:35;98170.63;;;15.86;53.47
51530;BME280;37613;51.788;21.582;2023-03-14T10:06:48;98175.33;;;15.94;55.12
51530;BME280;37613;51.788;21.582;2023-03-14T10:10:54;98174.26;;;16.08;55.47
51530;BME280;37613;51.788;21.582;2023-03-14T10:14:56;98170.17;;;16.22;54.54
51530;BME280;37613;51.788;21.582;2023-03-14T10:19:17;98159.56;;;16.32;53.61
51530;BME280;37613;51.788;21.582;2023-03-14T10:23:26;98149.77;;;16.34;52.12
51530;BME280;37613;51.788;21.582;2023-03-14T10:27:35;98142.23;;;16.32;52.15
51530;BME280;37613;51.788;21.582;2023-03-14T10:32:02;98150.27;;;16.21;51.64
51530;BME280;37613;51.788;21.582;2023-03-14T10:36:23;98151.88;;;16.16;51.20
51530;BME280;37613;51.788;21.582;2023-03-14T10:40:32;98148.16;;;16.14;51.01
51530;BME280;37613;51.788;21.582;2023-03-14T10:44:37;98138.84;;;16.23;50.83
51530;BME280;37613;51.788;21.582;2023-03-14T10:48:44;98131.09;;;16.24;49.10
51530;BME280;37613;51.788;21.582;2023-03-14T10:52:54;98133.89;;;16.18;49.65
51530;BME280;37613;51.788;21.582;2023-03-14T10:57:04;98132.43;;;16.15;49.74
51530;BME280;37613;51.788;21.582;2023-03-14T11:01:26;98130.27;;;16.17;49.99
51530;BME280;37613;51.788;21.582;2023-03-14T11:18:57;98137.25;;;16.12;50.07
51530;BME280;37613;51.788;21.582;2023-03-14T11:23:16;98134.76;;;15.87;50.10
51530;BME280;37613;51.788;21.582;2023-03-14T11:31:47;98120.70;;;15.42;50.31
51530;BME280;37613;51.788;21.582;2023-03-14T11:36:07;98119.35;;;15.21;50.73
51530;BME280;37613;51.788;21.582;2023-03-14T11:40:24;98118.69;;;15.03;51.15
51530;BME280;37613;51.788;21.582;2023-03-14T11:44:41;98120.84;;;14.87;51.65
51530;BME280;37613;51.788;21.582;2023-03-14T11:53:39;98113.29;;;14.63;52.32
51530;BME280;37613;51.788;21.582;2023-03-14T11:58:08;98113.11;;;14.52;52.28
51530;BME280;37613;51.788;21.582;2023-03-14T12:02:57;98111.61;;;14.40;52.67
51530;BME280;37613;51.788;21.582;2023-03-14T12:07:51;98120.27;;;14.32;53.15
51530;BME280;37613;51.788;21.582;2023-03-14T12:12:05;98123.50;;;14.32;53.39
51530;BME280;37613;51.788;21.582;2023-03-14T12:16:43;98118.61;;;14.41;52.86
51530;BME280;37613;51.788;21.582;2023-03-14T12:21:00;98104.11;;;14.57;53.19
51530;BME280;37613;51.788;21.582;2023-03-14T12:25:22;98106.54;;;14.76;53.49
51530;BME280;37613;51.788;21.582;2023-03-14T12:29:34;98099.05;;;14.98;52.72
51530;BME280;37613;51.788;21.582;2023-03-14T12:39:04;98087.30;;;15.09;51.59
51530;BME280;37613;51.788;21.582;2023-03-14T12:43:33;98088.42;;;15.14;52.24
51530;BME280;37613;51.788;21.582;2023-03-14T12:47:51;98086.83;;;15.16;52.12
51530;BME280;37613;51.788;21.582;2023-03-14T12:52:19;98095.20;;;15.19;52.14
51530;BME280;37613;51.788;21.582;2023-03-14T13:00:39;98096.81;;;15.18;52.51
51530;BME280;37613;51.788;21.582;2023-03-14T13:05:05;98095.48;;;15.12;52.47
51530;BME280;37613;51.788;21.582;2023-03-14T13:09:55;98097.98;;;14.98;52.73
51530;BME280;37613;51.788;21.582;2023-03-14T13:14:12;98089.71;;;14.82;53.47
51530;BME280;37613;51.788;21.582;2023-03-14T13:19:06;98090.97;;;14.72;53.63
51530;BME280;37613;51.788;21.582;2023-03-14T13:24:07;98088.30;;;14.63;53.57
51530;BME280;37613;51.788;21.582;2023-03-14T13:28:24;98104.56;;;14.55;53.95
51530;BME280;37613;51.788;21.582;2023-03-14T13:32:43;98109.23;;;14.45;54.47
51530;BME280;37613;51.788;21.582;2023-03-14T13:37:01;98125.11;;;14.32;54.33
51530;BME280;37613;51.788;21.582;2023-03-14T13:41:16;98129.17;;;14.15;54.45
51530;BME280;37613;51.788;21.582;2023-03-14T13:45:40;98133.86;;;13.96;54.86
51530;BME280;37613;51.788;21.582;2023-03-14T13:50:03;98142.02;;;13.76;55.62
51530;BME280;37613;51.788;21.582;2023-03-14T13:54:26;98158.77;;;13.58;56.60
51530;BME280;37613;51.788;21.582;2023-03-14T13:58:47;98158.63;;;13.29;57.81
51530;BME280;37613;51.788;21.582;2023-03-14T14:03:16;98163.58;;;12.96;59.52
51530;BME280;37613;51.788;21.582;2023-03-14T14:07:37;98166.73;;;12.66;61.29
51530;BME280;37613;51.788;21.582;2023-03-14T14:12:22;98172.38;;;12.41;61.84
51530;BME280;37613;51.788;21.582;2023-03-14T14:16:47;98177.81;;;12.23;62.25
51530;BME280;37613;51.788;21.582;2023-03-14T14:21:23;98178.92;;;12.10;62.90
51530;BME280;37613;51.788;21.582;2023-03-14T14:25:50;98179.29;;;11.99;63.52
51530;BME280;37613;51.788;21.582;2023-03-14T14:30:30;98187.13;;;11.91;63.72
51530;BME280;37613;51.788;21.582;2023-03-14T14:35:06;98177.58;;;11.84;63.81
51530;BME280;37613;51.788;21.582;2023-03-14T14:39:48;98173.09;;;11.77;64.14
51530;BME280;37613;51.788;21.582;2023-03-14T14:44:16;98173.10;;;11.67;65.20
51530;BME280;37613;51.788;21.582;2023-03-14T15:03:13;98159.36;;;11.23;67.17
51530;BME280;37613;51.788;21.582;2023-03-14T15:07:50;98157.55;;;11.13;67.26
51530;BME280;37613;51.788;21.582;2023-03-14T15:12:24;98150.42;;;11.02;67.86
51530;BME280;37613;51.788;21.582;2023-03-14T15:27:08;98185.05;;;10.87;67.71
51530;BME280;37613;51.788;21.582;2023-03-14T15:31:33;98176.03;;;10.80;67.95
51530;BME280;37613;51.788;21.582;2023-03-14T15:41:35;98202.91;;;10.68;69.77
51530;BME280;37613;51.788;21.582;2023-03-14T15:51:16;98194.52;;;10.56;69.63
51530;BME280;37613;51.788;21.582;2023-03-14T15:55:41;98191.73;;;10.55;69.42
51530;BME280;37613;51.788;21.582;2023-03-14T15:59:59;98199.45;;;10.53;69.99
51530;BME280;37613;51.788;21.582;2023-03-14T16:04:22;98207.50;;;10.50;70.30
51530;BME280;37613;51.788;21.582;2023-03-14T16:08:44;98207.14;;;10.49;70.03
51530;BME280;37613;51.788;21.582;2023-03-14T16:13:18;98206.13;;;10.49;70.39
51530;BME280;37613;51.788;21.582;2023-03-14T16:17:45;98210.27;;;10.48;70.63
51530;BME280;37613;51.788;21.582;2023-03-14T16:22:05;98213.33;;;10.46;70.93
51530;BME280;37613;51.788;21.582;2023-03-14T16:31:19;98213.89;;;10.44;71.26
51530;BME280;37613;51.788;21.582;2023-03-14T16:46:35;98228.27;;;10.38;72.12
51530;BME280;37613;51.788;21.582;2023-03-14T16:51:11;98230.00;;;10.36;72.03
51530;BME280;37613;51.788;21.582;2023-03-14T17:01:25;98223.17;;;10.33;72.38
51530;BME280;37613;51.788;21.582;2023-03-14T17:05:25;98222.77;;;10.35;72.48
51530;BME280;37613;51.788;21.582;2023-03-14T17:09:50;98226.86;;;10.35;72.49
51530;BME280;37613;51.788;21.582;2023-03-14T17:14:19;98228.23;;;10.39;72.61
51530;BME280;37613;51.788;21.582;2023-03-14T17:19:23;98225.89;;;10.49;72.73
51530;BME280;37613;51.788;21.582;2023-03-14T17:24:34;98228.23;;;10.49;72.65
51530;BME280;37613;51.788;21.582;2023-03-14T17:38:41;98228.47;;;10.42;72.87
51530;BME280;37613;51.788;21.582;2023-03-14T17:43:31;98228.55;;;10.37;73.01
51530;BME280;37613;51.788;21.582;2023-03-14T17:53:03;98232.11;;;10.31;73.47
51530;BME280;37613;51.788;21.582;2023-03-14T18:03:01;98237.34;;;10.25;73.63
51530;BME280;37613;51.788;21.582;2023-03-14T18:12:10;98253.09;;;10.20;73.82
51530;BME280;37613;51.788;21.582;2023-03-14T18:17:05;98244.75;;;10.19;74.06
51530;BME280;37613;51.788;21.582;2023-03-14T18:31:25;98252.59;;;10.18;74.77
51530;BME280;37613;51.788;21.582;2023-03-14T18:52:19;98266.15;;;10.25;75.56
51530;BME280;37613;51.788;21.582;2023-03-14T18:57:08;98273.92;;;10.21;75.46
51530;BME280;37613;51.788;21.582;2023-03-14T19:02:12;98276.73;;;10.14;75.57
51530;BME280;37613;51.788;21.582;2023-03-14T19:16:36;98295.25;;;10.00;76.21
51530;BME280;37613;51.788;21.582;2023-03-14T19:21:53;98294.02;;;9.99;76.67
51530;BME280;37613;51.788;21.582;2023-03-14T19:26:36;98296.83;;;9.98;76.60
51530;BME280;37613;51.788;21.582;2023-03-14T19:31:01;98296.39;;;9.94;76.54
51530;BME280;37613;51.788;21.582;2023-03-14T19:35:37;98295.50;;;9.88;76.62
51530;BME280;37613;51.788;21.582;2023-03-14T20:05:38;98297.05;;;9.33;77.76
51530;BME280;37613;51.788;21.582;2023-03-14T20:10:37;98289.44;;;9.25;77.78
51530;BME280;37613;51.788;21.582;2023-03-14T20:19:55;98288.71;;;9.07;78.01
51530;BME280;37613;51.788;21.582;2023-03-14T21:07:05;98298.39;;;8.37;80.21
51530;BME280;37613;51.788;21.582;2023-03-14T21:38:50;98299.13;;;7.89;80.71
51530;BME280;37613;51.788;21.582;2023-03-14T21:48:41;98315.67;;;7.70;81.15
51530;BME280;37613;51.788;21.582;2023-03-14T23:27:03;98353.98;;;7.79;83.59
51530;BME280;37613;51.788;21.582;2023-03-14T23:43:10;98366.90;;;7.99;84.07
